Atyla — YJTM7 — position and weather

sailwx.info

Track history (hours):
 
Tides and Currents Weather Stations Pressure Air Temp Water Temp Dewpoint Dewpoint Depression Visibility Wind Speed Wind Dir Waves Ship Positions

Atyla

Ship's website: http://atylaship.com

Last reported at 2018-Jun-18 15:41 UTC. Time now 2018-Jun-20 20:23 UTC.
Position N 45°39' W 001°08'.

Length 24 m.

Type: Sailing vessel. MMSI: 577192000.

Date/timePositionNaut miles runAvg speedWind from/ knotsBaromVisibWave heightAir tempDewpointWater temp
2018-Jun-18 15:41N 45°39' W 001°08'2 6.4
2018-Jun-18 15:24N 45°38' W 001°06'3 6.8
2018-Jun-18 14:59N 45°36' W 001°04'3 6.9
2018-Jun-18 14:29N 45°33' W 001°01'  
2018-Jun-12 09:51N 45°29' W 000°56'2 6.4
2018-Jun-12 09:29N 45°31' W 000°59'3 6.0
2018-Jun-12 09:00N 45°33' W 001°02'1 2.7
2018-Jun-12 08:29N 45°34' W 001°03'0 0.0
2018-Jun-12 07:59N 45°34' W 001°03'0 0.0
2018-Jun-12 07:23N 45°34' W 001°03'0 0.0
2018-Jun-12 06:56N 45°34' W 001°03'0 0.0
2018-Jun-12 06:26N 45°34' W 001°03'0 0.0
2018-Jun-12 05:53N 45°34' W 001°03'0 0.0
2018-Jun-12 05:20N 45°34' W 001°03'0 0.0
2018-Jun-12 04:59N 45°34' W 001°03'0 0.0
2018-Jun-12 04:26N 45°34' W 001°03'0 0.0
2018-Jun-12 03:53N 45°34' W 001°03'0 0.0
2018-Jun-12 03:29N 45°34' W 001°03'0 0.0
2018-Jun-12 02:56N 45°34' W 001°03'0 0.0
2018-Jun-12 02:29N 45°34' W 001°03'0 0.0
2018-Jun-12 01:59N 45°34' W 001°03'0 0.0
2018-Jun-12 01:26N 45°34' W 001°03'0 0.0
2018-Jun-12 00:59N 45°34' W 001°03'0 0.0
2018-Jun-12 00:29N 45°34' W 001°03'0 0.0
2018-Jun-11 23:32N 45°34' W 001°03'0 0.1
2018-Jun-11 23:29N 45°34' W 001°03'0 0.0
2018-Jun-11 22:59N 45°34' W 001°03'0 0.3
2018-Jun-11 22:30N 45°34' W 001°03'  
Track history (hours):
 
Tides and Currents Weather Stations Pressure Air Temp Water Temp Dewpoint Dewpoint Depression Visibility Wind Speed Wind Dir Waves Ship Positions

Atyla

Ship's website: http://atylaship.com

Last reported at 2018-Jun-18 15:41 UTC. Time now 2018-Jun-20 20:23 UTC.
Position N 45°39' W 001°08'.

Length 24 m.

Type: Sailing vessel. MMSI: 577192000.

Date/timePositionNaut miles runAvg speedWind from/ knotsBaromVisibWave heightAir tempDewpointWater temp
2018-Jun-18 15:41N 45°39' W 001°08'2 6.4
2018-Jun-18 15:24N 45°38' W 001°06'3 6.8
2018-Jun-18 14:59N 45°36' W 001°04'3 6.9
2018-Jun-18 14:29N 45°33' W 001°01'  
2018-Jun-12 09:51N 45°29' W 000°56'2 6.4
2018-Jun-12 09:29N 45°31' W 000°59'3 6.0
2018-Jun-12 09:00N 45°33' W 001°02'1 2.7
2018-Jun-12 08:29N 45°34' W 001°03'0 0.0
2018-Jun-12 07:59N 45°34' W 001°03'0 0.0
2018-Jun-12 07:23N 45°34' W 001°03'0 0.0
2018-Jun-12 06:56N 45°34' W 001°03'0 0.0
2018-Jun-12 06:26N 45°34' W 001°03'0 0.0
2018-Jun-12 05:53N 45°34' W 001°03'0 0.0
2018-Jun-12 05:20N 45°34' W 001°03'0 0.0
2018-Jun-12 04:59N 45°34' W 001°03'0 0.0
2018-Jun-12 04:26N 45°34' W 001°03'0 0.0
2018-Jun-12 03:53N 45°34' W 001°03'0 0.0
2018-Jun-12 03:29N 45°34' W 001°03'0 0.0
2018-Jun-12 02:56N 45°34' W 001°03'0 0.0
2018-Jun-12 02:29N 45°34' W 001°03'0 0.0
2018-Jun-12 01:59N 45°34' W 001°03'0 0.0
2018-Jun-12 01:26N 45°34' W 001°03'0 0.0
2018-Jun-12 00:59N 45°34' W 001°03'0 0.0
2018-Jun-12 00:29N 45°34' W 001°03'0 0.0
2018-Jun-11 23:32N 45°34' W 001°03'0 0.1
2018-Jun-11 23:29N 45°34' W 001°03'0 0.0
2018-Jun-11 22:59N 45°34' W 001°03'0 0.3
2018-Jun-11 22:30N 45°34' W 001°03'  

Dump ship's entire track history